Terminal Aerodrome Forecast
Issued by NWS Albany, NY

Home | Current Version | Previous Version | Text Only | Print | Product List | Glossary On
Versions: 1 2 3 4 5 6 7 8 9 10 11 12 13 14 15 16 17
000
FTUS41 KALY 022351
TAFPOU
TAF
KPOU 022351Z 0300/0324 29008KT P6SM SKC
     FM030300 30004KT P6SM SKC
     FM030600 00000KT P6SM SKC
     FM031400 VRB03KT P6SM BKN250
     FM031800 18004KT P6SM VCSH SCT040 OVC100
     FM032000 17006KT 3SM -SN BR SCT015 OVC030=

USA.gov is the U.S. government's official web portal to all federal, state and local government web resources and services.